Time;durP1;ratioP1;P1;durP2;ratioP2;P2;SDS_P1;SDS_P2;PMS_P1;PMS_P2;Temp;Humidity;BMP_temperature;BMP_pressure;BME280_temperature;BME280_humidity;BME280_pressure;Samples;Min_cycle;Max_cycle;Signal;HPM_P1;HPM_P2
2023/03/07 00:02:16;;;;;;;5.20;3.63;;;;;;;3.74;92.25;99810.59;5035257;28;20143;-82
2023/03/07 00:04:45;;;;;;;7.10;3.53;;;;;;;3.73;92.76;99822.59;5036698;28;20035;-82
2023/03/07 00:07:10;;;;;;;5.80;3.65;;;;;;;3.71;92.34;99832.06;5037062;28;20041;-82
2023/03/07 00:09:35;;;;;;;5.10;3.28;;;;;;;3.69;92.23;99823.50;5036265;28;20112;-83
2023/03/07 00:12:01;;;;;;;5.60;3.53;;;;;;;3.67;92.52;99825.25;5036426;28;20040;-82
2023/03/07 00:14:26;;;;;;;4.70;3.20;;;;;;;3.65;92.08;99824.41;5037661;28;20029;-81
2023/03/07 00:16:52;;;;;;;5.00;3.10;;;;;;;3.60;92.02;99818.47;5037809;28;20021;-82
2023/03/07 00:19:20;;;;;;;4.33;2.80;;;;;;;3.58;91.91;99815.09;5035380;28;20512;-82
2023/03/07 00:21:45;;;;;;;3.97;2.50;;;;;;;3.56;91.71;99812.53;5038131;28;20040;-82
2023/03/07 00:24:10;;;;;;;3.63;2.57;;;;;;;3.55;92.03;99817.72;5018810;28;20025;-82
2023/03/07 00:26:39;;;;;;;3.73;2.17;;;;;;;3.52;91.71;99812.59;5032973;28;20029;-83
2023/03/07 00:29:06;;;;;;;4.10;2.50;;;;;;;3.51;91.79;99818.63;5032818;28;20029;-82
2023/03/07 00:31:32;;;;;;;3.67;2.37;;;;;;;3.46;91.65;99816.94;5033272;28;20471;-82
2023/03/07 00:33:57;;;;;;;3.03;2.00;;;;;;;3.45;91.87;99801.56;5032269;28;20033;-82
2023/03/07 00:36:23;;;;;;;3.67;2.10;;;;;;;3.42;92.00;99809.31;5031259;28;20029;-82
2023/03/07 00:38:49;;;;;;;2.80;1.80;;;;;;;3.39;91.58;99805.06;5031124;28;20108;-82
2023/03/07 00:41:25;;;;;;;3.23;1.80;;;;;;;3.36;91.80;99804.22;5033904;28;20441;-81
2023/03/07 00:43:51;;;;;;;2.00;1.40;;;;;;;3.36;91.44;99804.22;5033614;28;20096;-81
2023/03/07 00:46:19;;;;;;;2.23;1.50;;;;;;;3.32;91.36;99808.56;5031842;28;20115;-82
2023/03/07 00:48:44;;;;;;;2.37;1.47;;;;;;;3.28;91.10;99807.75;5015187;28;20029;-81
2023/03/07 00:51:12;;;;;;;1.83;1.27;;;;;;;3.25;91.20;99799.22;5032730;28;20240;-81
2023/03/07 00:53:38;;;;;;;1.63;1.20;;;;;;;3.21;90.94;99805.28;5033973;28;20091;-81
2023/03/07 00:56:12;;;;;;;1.80;1.00;;;;;;;3.16;90.81;99797.66;5031316;28;20029;-81
2023/03/07 00:58:38;;;;;;;2.10;1.10;;;;;;;3.12;90.86;99790.84;5033680;28;20108;-81
2023/03/07 01:01:05;;;;;;;1.77;1.10;;;;;;;3.10;90.97;99795.97;5033456;28;20112;-81
2023/03/07 01:03:32;;;;;;;1.60;0.80;;;;;;;3.09;90.60;99796.84;5032302;28;20025;-81
2023/03/07 01:06:01;;;;;;;1.40;1.00;;;;;;;3.05;91.19;99787.50;5031839;28;20088;-81
2023/03/07 01:08:27;;;;;;;3.10;0.97;;;;;;;3.03;90.98;99792.63;5032185;28;20092;-81
2023/03/07 01:10:57;;;;;;;1.60;1.03;;;;;;;3.00;91.03;99787.53;5033340;28;20464;-81
2023/03/07 01:13:23;;;;;;;1.23;0.80;;;;;;;2.98;90.72;99789.28;5033460;28;20119;-81
2023/03/07 01:15:48;;;;;;;1.50;0.90;;;;;;;2.98;91.17;99784.16;5033027;28;20120;-80
2023/03/07 01:18:13;;;;;;;1.73;1.07;;;;;;;2.98;90.97;99791.84;5032652;28;20454;-81
2023/03/07 01:20:39;;;;;;;1.63;1.00;;;;;;;2.99;91.39;99787.56;5033224;28;20041;-81
2023/03/07 01:23:05;;;;;;;1.83;0.87;;;;;;;2.99;91.50;99779.84;5032866;28;20029;-81
2023/03/07 01:25:31;;;;;;;1.30;1.00;;;;;;;3.01;91.30;99778.94;5033335;28;20075;-81
2023/03/07 01:27:56;;;;;;;1.97;1.10;;;;;;;3.01;91.70;99780.69;5032588;28;20104;-81
2023/03/07 01:30:23;;;;;;;2.27;1.10;;;;;;;3.01;91.58;99772.97;5033228;28;20025;-81
2023/03/07 01:32:54;;;;;;;1.70;1.10;;;;;;;2.99;91.88;99764.44;5032030;28;20030;-81
2023/03/07 01:35:20;;;;;;;;;;;;;;;3.02;90.92;99770.38;5033392;28;20034;-81
2023/03/07 01:37:48;;;;;;;1.90;1.20;;;;;;;3.03;91.69;99766.09;5030632;28;19975;-81
2023/03/07 01:40:13;;;;;;;1.97;1.30;;;;;;;3.06;91.51;99770.34;5032884;28;20037;-81
2023/03/07 01:42:38;;;;;;;2.10;1.37;;;;;;;3.06;91.53;99755.78;5031598;28;20455;-80
2023/03/07 01:45:26;;;;;;;2.77;1.33;;;;;;;3.06;91.63;99763.50;5032058;28;20487;-81
2023/03/07 01:47:51;;;;;;;3.00;1.53;;;;;;;3.06;91.99;99758.34;5029400;28;20033;-81
2023/03/07 01:50:17;;;;;;;2.30;1.60;;;;;;;3.07;92.35;99752.34;5033684;28;20383;-81
2023/03/07 01:52:57;;;;;;;2.50;1.70;;;;;;;3.08;92.00;99748.88;5031445;28;21013;-81
2023/03/07 01:55:27;;;;;;;2.60;1.73;;;;;;;3.07;92.03;99742.06;5032694;28;20400;-81
2023/03/07 01:57:54;;;;;;;2.60;1.90;;;;;;;3.09;92.46;99740.31;5014916;28;20022;-81
2023/03/07 02:00:28;;;;;;;2.80;1.83;;;;;;;3.11;92.39;99743.72;5030537;28;20044;-81
2023/03/07 02:03:16;;;;;;;2.80;1.90;;;;;;;3.12;92.48;99740.28;5031187;28;20025;-80
2023/03/07 02:05:48;;;;;;;3.23;2.03;;;;;;;3.16;92.14;99733.41;5030672;28;20021;-81
2023/03/07 02:08:15;;;;;;;3.30;1.90;;;;;;;3.19;92.59;99741.03;5030673;28;20112;-81
2023/03/07 02:10:42;;;;;;;3.20;2.00;;;;;;;3.21;92.70;99739.31;5031510;28;20476;-81
2023/03/07 02:13:08;;;;;;;3.23;2.10;;;;;;;3.23;92.52;99734.16;5031863;28;20033;-80
2023/03/07 02:15:34;;;;;;;4.00;2.80;;;;;;;3.24;93.05;99728.97;5031575;28;20033;-82
2023/03/07 02:18:01;;;;;;;4.40;2.63;;;;;;;3.24;93.19;99728.97;5030360;28;20036;-82
2023/03/07 02:20:57;;;;;;;4.53;2.80;;;;;;;3.25;93.03;99729.81;5030751;28;20388;-82
2023/03/07 02:23:55;;;;;;;6.33;3.07;;;;;;;3.26;93.79;99736.66;5033301;28;20052;-82
2023/03/07 02:26:29;;;;;;;3.97;2.60;;;;;;;3.27;93.74;99722.94;5030215;28;20486;-82
2023/03/07 02:28:55;;;;;;;4.27;2.77;;;;;;;3.26;94.00;99719.53;5031138;28;20041;-83
2023/03/07 02:31:20;;;;;;;4.43;2.60;;;;;;;3.28;93.88;99715.22;5030381;28;20045;-83
2023/03/07 02:33:46;;;;;;;4.80;2.77;;;;;;;3.29;94.01;99710.91;5031181;28;20112;-82
2023/03/07 02:36:14;;;;;;;4.43;3.00;;;;;;;3.31;93.86;99719.47;5031082;28;20029;-82
2023/03/07 02:38:43;;;;;;;4.67;3.03;;;;;;;3.32;93.99;99713.47;5030901;28;20037;-83
2023/03/07 02:41:10;;;;;;;4.27;3.00;;;;;;;3.32;93.50;99705.75;5030733;28;20029;-82
2023/03/07 02:43:36;;;;;;;6.67;3.37;;;;;;;3.31;93.54;99704.91;5031664;28;20021;-82
2023/03/07 02:46:01;;;;;;;5.13;3.27;;;;;;;3.31;93.54;99709.19;5029437;28;20037;-82
2023/03/07 02:48:26;;;;;;;5.50;3.40;;;;;;;3.31;93.72;99704.03;5031039;28;20055;-82
2023/03/07 02:50:51;;;;;;;5.57;3.47;;;;;;;3.29;93.96;99700.63;5028745;28;20040;-82
2023/03/07 02:53:17;;;;;;;5.40;3.50;;;;;;;3.31;93.84;99701.47;5030712;28;20063;-83
2023/03/07 02:55:42;;;;;;;5.97;3.53;;;;;;;3.30;94.15;99703.22;5030027;28;20029;-83
2023/03/07 02:58:07;;;;;;;5.43;2.73;;;;;;;3.32;93.96;99701.47;5031608;28;20067;-83
2023/03/07 03:00:33;;;;;;;5.37;3.17;;;;;;;3.30;94.02;99698.06;5029675;28;20033;-82
2023/03/07 03:02:58;;;;;;;4.83;3.30;;;;;;;3.32;93.96;99696.31;5030688;28;20029;-83
2023/03/07 03:05:24;;;;;;;5.77;2.93;;;;;;;3.32;93.94;99700.59;5030308;28;20040;-82
2023/03/07 03:07:49;;;;;;;5.07;2.90;;;;;;;3.30;94.27;99692.06;5030590;28;20030;-83
2023/03/07 03:10:15;;;;;;;5.03;3.00;;;;;;;3.30;94.21;99697.19;5030849;28;20065;-83
2023/03/07 03:12:40;;;;;;;5.57;3.20;;;;;;;3.29;94.30;99701.50;5014972;28;20025;-83
2023/03/07 03:15:06;;;;;;;4.40;2.50;;;;;;;3.29;94.29;99692.94;5030968;28;20056;-82
2023/03/07 03:17:32;;;;;;;5.03;2.70;;;;;;;3.30;93.93;99692.06;5029854;28;20109;-83
2023/03/07 03:19:57;;;;;;;4.80;2.80;;;;;;;3.28;94.10;99691.22;5030618;28;20046;-82
2023/03/07 03:22:22;;;;;;;4.57;2.87;;;;;;;3.25;94.17;99697.28;5031080;28;20029;-83
2023/03/07 03:24:47;;;;;;;5.57;2.70;;;;;;;3.24;94.39;99689.59;5031234;28;20033;-82
2023/03/07 03:27:13;;;;;;;6.70;2.80;;;;;;;3.24;94.18;99692.16;5031137;28;20037;-83
2023/03/07 03:29:39;;;;;;;5.03;3.17;;;;;;;3.22;94.70;99692.16;5014878;28;20034;-82
2023/03/07 03:32:05;;;;;;;6.20;3.00;;;;;;;3.22;94.60;99684.47;5028596;28;20036;-82
2023/03/07 03:34:30;;;;;;;4.20;2.50;;;;;;;3.23;94.21;99687.91;5030664;28;20034;-82
2023/03/07 03:36:56;;;;;;;5.20;2.90;;;;;;;3.23;94.79;99680.19;5029476;28;20135;-83
2023/03/07 03:39:21;;;;;;;4.00;2.63;;;;;;;3.23;94.41;99675.88;5030371;28;20034;-82
2023/03/07 03:41:46;;;;;;;4.23;2.60;;;;;;;3.23;94.66;99686.16;5031154;28;20083;-82
2023/03/07 03:44:12;;;;;;;4.40;2.90;;;;;;;3.23;94.49;99685.31;5030126;28;20380;-82
2023/03/07 03:46:37;;;;;;;4.63;2.90;;;;;;;3.21;94.75;99677.63;5031012;28;20047;-82
2023/03/07 03:49:03;;;;;;;4.40;2.80;;;;;;;3.22;95.01;99668.19;5031210;28;20022;-83
2023/03/07 03:51:29;;;;;;;4.10;2.50;;;;;;;3.22;95.00;99673.34;5030480;28;20495;-83
2023/03/07 03:53:56;;;;;;;3.80;2.57;;;;;;;3.22;94.75;99670.78;5029863;28;20460;-83
2023/03/07 03:56:23;;;;;;;6.80;2.40;;;;;;;3.22;94.72;99668.19;5014169;28;20033;-82
2023/03/07 03:58:50;;;;;;;5.47;2.40;;;;;;;3.20;94.74;99668.22;5030448;28;20130;-83
2023/03/07 04:01:17;;;;;;;5.13;2.97;;;;;;;3.18;94.89;99662.22;5030864;28;20051;-83
2023/03/07 04:03:45;;;;;;;3.97;2.40;;;;;;;3.18;95.08;99665.66;5035089;28;20030;-83
2023/03/07 04:06:17;;;;;;;3.50;2.20;;;;;;;3.20;94.88;99657.94;5032178;28;20044;-82
2023/03/07 04:08:43;;;;;;;4.43;2.43;;;;;;;3.18;94.78;99657.97;5034198;28;20033;-83
2023/03/07 04:11:09;;;;;;;5.33;2.53;;;;;;;3.18;95.03;99651.94;5034629;28;20035;-83
2023/03/07 04:13:35;;;;;;;4.53;2.67;;;;;;;3.17;94.65;99645.97;5034591;28;20427;-83
2023/03/07 04:16:01;;;;;;;3.53;2.20;;;;;;;3.17;94.74;99640.84;5032981;28;20068;-82
2023/03/07 04:18:26;;;;;;;3.87;2.63;;;;;;;3.17;94.56;99632.25;5034691;28;20033;-83
2023/03/07 04:20:52;;;;;;;4.00;2.43;;;;;;;3.17;94.84;99637.41;5033423;28;20025;-83
2023/03/07 04:23:18;;;;;;;4.00;2.23;;;;;;;3.15;94.96;99627.16;5034608;28;20109;-83
2023/03/07 04:25:48;;;;;;;3.50;2.20;;;;;;;3.15;94.88;99619.44;5032497;28;20028;-83
2023/03/07 04:28:18;;;;;;;4.53;2.50;;;;;;;3.12;94.78;99622.06;5029712;28;20046;-83
2023/03/07 04:30:44;;;;;;;4.10;2.40;;;;;;;3.13;94.66;99618.63;5032636;28;20531;-83
2023/03/07 04:33:11;;;;;;;2.97;1.90;;;;;;;3.13;94.81;99618.63;5033679;28;20112;-83
2023/03/07 04:35:37;;;;;;;3.97;2.13;;;;;;;3.12;94.74;99611.78;5033431;28;20472;-83
2023/03/07 04:38:02;;;;;;;3.30;1.87;;;;;;;3.13;94.59;99613.47;5017571;28;20033;-83
2023/03/07 04:40:27;;;;;;;3.10;2.00;;;;;;;3.13;94.34;99608.34;5033168;28;20033;-83
2023/03/07 04:42:53;;;;;;;3.00;1.90;;;;;;;3.11;94.51;99604.09;5034836;28;20054;-83
2023/03/07 04:45:18;;;;;;;2.93;1.87;;;;;;;3.10;94.74;99608.38;5032575;28;20040;-83
2023/03/07 04:47:43;;;;;;;3.20;2.20;;;;;;;3.09;94.75;99604.13;5034626;28;20061;-83
2023/03/07 04:50:09;;;;;;;3.20;2.00;;;;;;;3.09;94.56;99605.84;5033610;28;20037;-82
2023/03/07 04:52:34;;;;;;;3.23;2.20;;;;;;;3.10;94.79;99602.41;5031600;28;20104;-83
2023/03/07 04:55:00;;;;;;;3.80;2.20;;;;;;;3.10;94.86;99605.81;5032915;28;20029;-83
2023/03/07 04:57:25;;;;;;;4.60;2.20;;;;;;;3.10;94.65;99608.38;5031462;28;20366;-83
2023/03/07 04:59:50;;;;;;;4.00;2.13;;;;;;;3.10;94.68;99598.09;5032292;28;20041;-82
2023/03/07 05:02:15;;;;;;;3.67;2.10;;;;;;;3.13;94.82;99595.50;5031392;28;20033;-82
2023/03/07 05:04:41;;;;;;;3.57;2.30;;;;;;;3.13;94.87;99592.09;5032483;28;20022;-83
2023/03/07 05:07:06;;;;;;;3.53;1.80;;;;;;;3.14;94.74;99594.63;5033645;28;20358;-82
2023/03/07 05:09:31;;;;;;;4.10;2.20;;;;;;;3.14;94.82;99591.22;5031300;28;20033;-83
2023/03/07 05:11:56;;;;;;;3.17;1.93;;;;;;;3.14;94.40;99589.47;5030906;28;20025;-83
2023/03/07 05:14:22;;;;;;;3.77;2.10;;;;;;;3.15;94.47;99590.34;5032821;28;20026;-83
2023/03/07 05:16:47;;;;;;;5.73;2.00;;;;;;;3.13;94.26;99587.78;5033310;28;20030;-83
2023/03/07 05:19:12;;;;;;;4.87;2.20;;;;;;;3.11;94.68;99589.53;5032618;28;20085;-83
2023/03/07 05:21:39;;;;;;;4.70;2.10;;;;;;;3.10;94.54;99585.25;5033006;28;20509;-83
2023/03/07 05:24:06;;;;;;;2.80;1.80;;;;;;;3.11;94.73;99586.13;5032317;28;20384;-82
2023/03/07 05:26:31;;;;;;;3.10;2.13;;;;;;;3.12;94.80;99586.09;5031796;28;20033;-84
2023/03/07 05:28:56;;;;;;;3.23;1.93;;;;;;;3.11;94.43;99584.38;5031585;28;20029;-83
2023/03/07 05:31:21;;;;;;;3.83;2.33;;;;;;;3.10;94.92;99581.84;5031810;28;20024;-83
2023/03/07 05:33:47;;;;;;;4.53;2.43;;;;;;;3.11;94.75;99576.69;5030803;28;20029;-83
2023/03/07 05:36:12;;;;;;;4.47;2.20;;;;;;;3.10;94.62;99581.84;5032030;28;20508;-83
2023/03/07 05:38:38;;;;;;;5.40;2.00;;;;;;;3.08;94.57;99579.28;5029000;28;20052;-83
2023/03/07 05:41:03;;;;;;;4.17;2.17;;;;;;;3.09;94.54;99575.84;5032050;28;20025;-82
2023/03/07 05:43:28;;;;;;;7.13;2.90;;;;;;;3.08;94.99;99575.88;5030807;28;20025;-83
2023/03/07 05:45:53;;;;;;;5.87;2.40;;;;;;;3.06;94.88;99575.91;5032065;28;20083;-83
2023/03/07 05:48:19;;;;;;;6.73;2.60;;;;;;;3.08;95.23;99578.47;5030056;28;20037;-84
2023/03/07 05:50:44;;;;;;;5.00;2.67;;;;;;;3.07;95.28;99577.63;5029388;28;20079;-83
2023/03/07 05:53:10;;;;;;;4.80;2.27;;;;;;;3.08;94.79;99579.28;5016217;28;20029;-83
2023/03/07 05:55:35;;;;;;;4.20;2.60;;;;;;;3.07;95.07;99577.63;5030338;28;20064;-82
2023/03/07 05:58:00;;;;;;;5.03;2.47;;;;;;;3.06;95.23;99575.91;5031411;28;20387;-83
2023/03/07 06:00:26;;;;;;;6.93;2.50;;;;;;;3.06;94.84;99570.78;5029822;28;20061;-83
2023/03/07 06:02:51;;;;;;;5.17;2.60;;;;;;;3.07;95.14;99576.75;5030722;28;20468;-83
2023/03/07 06:05:16;;;;;;;5.17;2.33;;;;;;;3.05;95.29;99579.38;5031339;28;20060;-83
2023/03/07 06:07:42;;;;;;;3.40;2.20;;;;;;;3.03;95.39;99569.09;5030747;28;20021;-83
2023/03/07 06:10:09;;;;;;;4.63;2.70;;;;;;;3.04;94.98;99572.53;5029629;28;20550;-83
2023/03/07 06:12:34;;;;;;;3.63;2.10;;;;;;;3.04;94.88;99570.78;5028872;28;20041;-82
2023/03/07 06:15:00;;;;;;;4.30;2.27;;;;;;;3.04;94.94;99567.38;5031222;28;20029;-82
2023/03/07 06:17:25;;;;;;;5.50;2.30;;;;;;;3.04;95.12;99572.53;5032445;28;20078;-83
2023/03/07 06:19:50;;;;;;;3.97;2.30;;;;;;;3.04;94.90;99572.53;5031203;28;20107;-83
2023/03/07 06:22:15;;;;;;;3.33;2.17;;;;;;;3.03;95.05;99568.25;5016615;28;20048;-83
2023/03/07 06:24:41;;;;;;;3.23;2.00;;;;;;;3.02;94.73;99564.81;5014094;28;20025;-83
2023/03/07 06:27:06;;;;;;;3.73;2.07;;;;;;;3.01;94.74;99572.56;5029731;28;20377;-83
2023/03/07 06:29:32;;;;;;;3.60;2.00;;;;;;;2.99;94.81;99569.16;5030259;28;20040;-83
2023/03/07 06:31:58;;;;;;;3.80;2.10;;;;;;;2.99;95.11;99566.59;5030597;28;20476;-83
2023/03/07 06:34:23;;;;;;;3.37;2.00;;;;;;;2.99;94.94;99564.84;5030718;28;20067;-84
2023/03/07 06:36:48;;;;;;;4.60;2.20;;;;;;;2.98;94.99;99568.34;5031086;28;20534;-83
2023/03/07 06:39:19;;;;;;;3.93;2.30;;;;;;;3.00;95.09;99576.84;5030615;28;20033;-83
2023/03/07 06:41:46;;;;;;;3.15;2.13;;;;;;;2.99;95.08;99587.16;5031948;28;20032;-83
2023/03/07 06:44:11;;;;;;;5.37;2.00;;;;;;;2.97;94.86;99586.31;5031398;28;20044;-83
2023/03/07 06:46:36;;;;;;;3.43;2.00;;;;;;;2.92;94.76;99598.38;5029439;28;20491;-84
2023/03/07 06:49:01;;;;;;;3.63;2.07;;;;;;;2.87;94.70;99581.34;5031210;28;20032;-83
2023/03/07 06:51:27;;;;;;;3.37;2.23;;;;;;;2.85;94.52;99588.22;5027757;28;20033;-83
2023/03/07 06:53:52;;;;;;;5.37;2.50;;;;;;;2.82;94.41;99572.84;5027471;28;20091;-83
2023/03/07 06:56:17;;;;;;;5.30;2.70;;;;;;;2.80;94.37;99578.88;5029204;28;20030;-84
2023/03/07 06:58:43;;;;;;;6.30;3.47;;;;;;;2.80;94.35;99582.28;5029658;28;20448;-84
2023/03/07 07:01:15;;;;;;;7.23;3.93;;;;;;;2.77;93.85;99574.59;5028446;28;20029;-84
2023/03/07 07:03:40;;;;;;;6.83;3.80;;;;;;;2.74;94.23;99569.50;5028157;28;20024;-84
2023/03/07 07:06:06;;;;;;;6.93;3.20;;;;;;;2.75;94.39;99576.34;5026502;28;20411;-84
2023/03/07 07:08:31;;;;;;;6.40;3.47;;;;;;;2.75;94.63;99586.63;5028323;28;20021;-82
2023/03/07 07:10:58;;;;;;;6.43;3.37;;;;;;;2.74;94.70;99590.06;5031473;28;20037;-82
2023/03/07 07:13:23;;;;;;;5.50;3.23;;;;;;;2.72;94.33;99596.97;5016593;28;20017;-82
2023/03/07 07:15:48;;;;;;;5.53;3.00;;;;;;;2.71;94.27;99600.41;5029432;28;20026;-82
2023/03/07 07:18:14;;;;;;;5.13;3.13;;;;;;;2.67;94.02;99598.72;5028256;28;20033;-81
2023/03/07 07:20:39;;;;;;;4.90;2.90;;;;;;;2.64;94.50;99596.19;5027369;28;20111;-82
2023/03/07 07:23:04;;;;;;;4.83;2.80;;;;;;;2.62;93.81;99597.94;5027125;28;20052;-81
2023/03/07 07:25:29;;;;;;;5.17;2.70;;;;;;;2.58;93.80;99595.41;5023470;28;20423;-82
2023/03/07 07:27:55;;;;;;;5.23;2.90;;;;;;;2.55;93.70;99594.59;5029406;28;20396;-82
2023/03/07 07:30:20;;;;;;;7.73;3.60;;;;;;;2.51;93.53;99598.94;5025140;28;20027;-83
2023/03/07 07:32:46;;;;;;;7.30;4.03;;;;;;;2.49;93.54;99599.81;5030346;28;20067;-82
2023/03/07 07:35:12;;;;;;;6.73;3.90;;;;;;;2.46;93.64;99600.69;5026172;28;20113;-83
2023/03/07 07:37:39;;;;;;;7.30;4.10;;;;;;;2.46;93.50;99598.13;5033679;28;20105;-82
2023/03/07 07:40:05;;;;;;;7.33;4.13;;;;;;;2.44;93.08;99602.44;5036213;28;20025;-82
2023/03/07 07:42:30;;;;;;;7.10;3.80;;;;;;;2.43;92.68;99616.13;5033191;28;20091;-81
2023/03/07 07:44:56;;;;;;;5.50;3.20;;;;;;;2.33;92.24;99620.53;5029398;28;20535;-80
2023/03/07 07:47:22;;;;;;;5.47;3.30;;;;;;;2.23;92.24;99617.22;5028432;28;20038;-80
2023/03/07 07:49:47;;;;;;;7.07;3.43;;;;;;;2.13;92.05;99628.47;5027491;28;20033;-78
2023/03/07 07:52:13;;;;;;;5.17;2.97;;;;;;;2.06;92.01;99642.19;5031267;28;20063;-78
2023/03/07 07:54:38;;;;;;;4.90;3.10;;;;;;;1.98;92.43;99649.97;5039009;28;20129;-79
2023/03/07 07:57:03;;;;;;;4.60;3.10;;;;;;;1.93;92.48;99652.59;5030898;28;20114;-78
2023/03/07 07:59:30;;;;;;;4.17;2.83;;;;;;;1.88;92.43;99662.03;5035964;28;20495;-78
2023/03/07 08:01:55;;;;;;;5.03;3.17;;;;;;;1.82;92.42;99664.69;5034377;28;20059;-78
2023/03/07 08:04:21;;;;;;;4.80;2.97;;;;;;;1.78;92.43;99668.13;5036379;28;20507;-79
2023/03/07 08:06:46;;;;;;;5.17;2.77;;;;;;;1.72;92.36;99663.03;5031779;28;20025;-79
2023/03/07 08:09:11;;;;;;;5.47;3.00;;;;;;;1.66;92.67;99664.81;5037490;28;20468;-79
2023/03/07 08:11:36;;;;;;;4.73;2.60;;;;;;;1.64;92.72;99663.97;5035070;28;20033;-78
2023/03/07 08:14:02;;;;;;;4.97;2.73;;;;;;;1.60;93.08;99659.72;5035243;28;20400;-79
2023/03/07 08:16:28;;;;;;;4.83;2.87;;;;;;;1.59;92.80;99673.41;5037595;28;20043;-78
2023/03/07 08:18:55;;;;;;;4.40;2.80;;;;;;;1.59;93.18;99667.44;5039294;28;20041;-78
2023/03/07 08:21:21;;;;;;;5.23;3.10;;;;;;;1.61;93.03;99671.69;5033037;28;20028;-79
2023/03/07 08:23:46;;;;;;;5.23;2.80;;;;;;;1.58;92.92;99666.56;5036861;28;20515;-79
2023/03/07 08:26:12;;;;;;;4.60;2.37;;;;;;;1.57;93.26;99669.16;5035353;28;20624;-78
2023/03/07 08:28:38;;;;;;;4.63;2.30;;;;;;;1.58;93.27;99674.25;5035091;28;20039;-76
2023/03/07 08:31:22;;;;;;;4.27;2.40;;;;;;;1.57;93.39;99681.97;5035227;28;20495;-77
2023/03/07 08:33:48;;;;;;;3.57;1.90;;;;;;;1.54;93.27;99658.94;5032183;28;20099;-78
2023/03/07 08:36:15;;;;;;;4.43;2.23;;;;;;;1.56;93.21;99673.41;5036212;28;20025;-78
2023/03/07 08:38:41;;;;;;;4.30;2.20;;;;;;;1.60;93.18;99679.41;5030841;28;20116;-78
2023/03/07 08:41:07;;;;;;;4.73;2.00;;;;;;;1.61;93.07;99683.66;5038642;28;20024;-78
2023/03/07 08:43:38;;;;;;;3.27;1.90;;;;;;;1.62;92.93;99678.50;5035527;28;20025;-79
2023/03/07 08:46:04;;;;;;;4.17;2.03;;;;;;;1.59;92.45;99681.09;5031225;28;20521;-79
2023/03/07 08:48:29;;;;;;;3.07;1.83;;;;;;;1.57;92.70;99682.81;5036933;28;20053;-79
2023/03/07 08:50:55;;;;;;;2.70;1.47;;;;;;;1.56;92.49;99683.66;5033524;28;20039;-78
2023/03/07 08:53:21;;;;;;;3.97;1.67;;;;;;;1.51;92.37;99673.47;5035439;28;20021;-78
2023/03/07 08:55:46;;;;;;;2.53;1.20;;;;;;;1.51;92.70;99670.06;5034816;28;20029;-78
2023/03/07 08:58:12;;;;;;;1.90;1.30;;;;;;;1.59;92.83;99677.69;5034553;28;20037;-78
2023/03/07 09:00:37;;;;;;;2.30;1.50;;;;;;;1.68;92.81;99667.34;5035387;28;20215;-78
2023/03/07 09:03:04;;;;;;;2.40;1.40;;;;;;;1.76;92.57;99669.84;5031507;28;20040;-77
2023/03/07 09:05:30;;;;;;;2.77;2.00;;;;;;;1.83;92.08;99671.50;5033362;28;20029;-78
2023/03/07 09:07:55;;;;;;;4.67;2.03;;;;;;;1.90;92.58;99667.16;5034536;28;20641;-78
2023/03/07 09:10:21;;;;;;;2.70;1.60;;;;;;;2.01;93.00;99664.50;5018304;28;20053;-78
2023/03/07 09:12:49;;;;;;;3.70;2.00;;;;;;;2.10;93.17;99665.28;5031617;28;20029;-79
2023/03/07 09:15:15;;;;;;;3.53;2.03;;;;;;;2.17;93.14;99672.88;5017553;28;20029;-79
2023/03/07 09:17:40;;;;;;;3.37;1.97;;;;;;;2.20;92.67;99665.16;5036174;28;20029;-78
2023/03/07 09:20:07;;;;;;;3.70;1.80;;;;;;;2.20;92.26;99671.16;5035719;28;20049;-81
2023/03/07 09:22:32;;;;;;;3.23;1.90;;;;;;;2.19;92.14;99668.59;5030607;28;20108;-80
2023/03/07 09:24:57;;;;;;;3.00;1.57;;;;;;;2.19;91.89;99669.47;5033505;28;20116;-81
2023/03/07 09:27:23;;;;;;;2.50;1.50;;;;;;;2.20;91.77;99666.03;5032702;28;20037;-81
2023/03/07 09:29:48;;;;;;;2.13;1.40;;;;;;;2.21;91.65;99675.44;5035154;28;20034;-81
2023/03/07 09:32:13;;;;;;;2.33;1.60;;;;;;;2.22;91.69;99689.94;5035406;28;20044;-83
2023/03/07 09:34:39;;;;;;;4.80;2.43;;;;;;;2.26;91.85;99689.03;5029947;28;20483;-79
2023/03/07 09:37:04;;;;;;;4.10;2.30;;;;;;;2.30;92.01;99684.75;5030349;28;20053;-83
2023/03/07 09:39:30;;;;;;;4.30;2.13;;;;;;;2.36;92.15;99688.97;5033144;28;20158;-79
2023/03/07 09:42:12;;;;;;;6.20;2.23;;;;;;;2.42;92.09;99684.59;5034905;28;20036;-79
2023/03/07 09:45:01;;;;;;;4.93;1.98;;;;;;;2.49;91.83;99690.53;5034005;28;20025;-78
2023/03/07 09:47:56;;;;;;;5.20;1.97;;;;;;;2.53;91.52;99684.50;5033845;28;20087;-79
2023/03/07 09:50:38;;;;;;;3.77;2.10;;;;;;;2.55;91.65;99690.47;5032434;28;20057;-79
2023/03/07 09:53:11;;;;;;;3.83;2.43;;;;;;;2.61;91.92;99686.97;5030139;28;20367;-79
2023/03/07 09:55:37;;;;;;;3.67;2.33;;;;;;;2.64;91.32;99684.38;5035980;28;20033;-79
2023/03/07 09:58:13;;;;;;;4.13;2.57;;;;;;;2.65;91.02;99687.78;5034296;28;20036;-78
2023/03/07 10:00:41;;;;;;;4.77;2.83;;;;;;;2.65;91.40;99692.91;5031555;28;20105;-78
2023/03/07 10:03:26;;;;;;;4.27;2.60;;;;;;;2.67;91.18;99686.03;5016219;28;20035;-80
2023/03/07 10:05:56;;;;;;;5.47;2.70;;;;;;;2.68;90.66;99688.56;5035109;28;20055;-80
2023/03/07 10:08:28;;;;;;;5.17;2.97;;;;;;;2.67;90.71;99686.03;5034413;28;20082;-79
2023/03/07 10:11:05;;;;;;;4.30;2.80;;;;;;;2.70;91.25;99686.00;5031175;28;20040;-80
2023/03/07 10:13:33;;;;;;;4.07;2.40;;;;;;;2.71;90.90;99685.97;5032277;28;20059;-79
2023/03/07 10:16:17;;;;;;;3.80;2.30;;;;;;;2.71;90.58;99680.84;5031201;28;20035;-79
2023/03/07 10:18:47;;;;;;;4.30;2.30;;;;;;;2.76;91.19;99685.91;5033491;28;20377;-81
2023/03/07 10:21:22;;;;;;;3.30;2.03;;;;;;;2.80;91.04;99692.72;5030175;28;20124;-81
2023/03/07 10:24:17;;;;;;;3.40;2.00;;;;;;;2.83;90.81;99687.56;5031756;28;20151;-81
2023/03/07 10:26:59;;;;;;;3.20;1.73;;;;;;;2.86;90.70;99682.38;5030505;28;20044;-80
2023/03/07 10:29:31;;;;;;;3.20;1.97;;;;;;;2.88;90.62;99683.22;5028972;28;20518;-82
2023/03/07 10:32:15;;;;;;;4.32;2.65;;;;;;;2.92;90.24;99689.16;5028489;28;20029;-81
2023/03/07 10:34:40;;;;;;;3.37;2.27;;;;;;;2.97;90.56;99683.94;5015098;28;20033;-80
2023/03/07 10:37:16;;;;;;;3.90;2.30;;;;;;;3.01;90.39;99683.03;5031608;28;20102;-80
2023/03/07 10:39:51;;;;;;;3.57;2.10;;;;;;;3.06;90.31;99688.97;5027475;28;20056;-79
2023/03/07 10:42:19;;;;;;;3.50;2.27;;;;;;;3.11;90.29;99692.31;5031361;28;20045;-80
2023/03/07 10:44:47;;;;;;;4.37;2.80;;;;;;;3.10;89.73;99695.75;5031442;28;20486;-80
2023/03/07 10:47:19;;;;;;;4.53;3.00;;;;;;;3.14;90.17;99689.72;5026228;28;20037;-80
2023/03/07 10:49:45;;;;;;;;;;;;;;;3.22;90.31;99689.59;5028973;28;20037;-78
2023/03/07 10:52:18;;;;;;;4.57;3.10;;;;;;;3.21;89.90;99692.22;5028356;28;19928;-80
2023/03/07 10:54:43;;;;;;;4.90;3.37;;;;;;;3.19;89.79;99690.50;5028310;28;20037;-79
2023/03/07 10:57:15;;;;;;;5.93;3.40;;;;;;;3.23;89.99;99687.91;5032364;28;20041;-79
2023/03/07 10:59:46;;;;;;;9.52;3.17;;;;;;;3.27;89.66;99690.38;5034072;28;20858;-80
2023/03/07 11:02:36;;;;;;;7.05;3.20;;;;;;;3.32;89.51;99692.88;5032901;28;20060;-81
2023/03/07 11:05:22;;;;;;;3.80;2.50;;;;;;;3.37;89.58;99683.41;5028398;28;20091;-79
2023/03/07 11:07:48;;;;;;;6.07;3.40;;;;;;;3.46;89.49;99692.69;5030089;28;20112;-79
2023/03/07 11:10:32;;;;;;;4.47;2.83;;;;;;;3.46;88.51;99688.38;5029065;28;20119;-79
2023/03/07 11:12:57;;;;;;;4.83;3.10;;;;;;;3.47;89.28;99691.81;5034594;28;20037;-79
2023/03/07 11:15:23;;;;;;;5.35;3.35;;;;;;;3.50;89.35;99681.50;5030462;28;20048;-79
2023/03/07 11:17:50;;;;;;;5.20;3.30;;;;;;;3.56;89.08;99685.69;5032364;28;20037;-78
2023/03/07 11:20:45;;;;;;;4.90;3.27;;;;;;;3.64;89.00;99676.97;5029361;28;20069;-84
2023/03/07 11:23:23;;;;;;;5.10;3.30;;;;;;;3.70;89.05;99685.44;5015654;28;20570;-79
2023/03/07 11:25:50;;;;;;;5.80;3.60;;;;;;;3.72;88.30;99681.13;5026386;28;20037;-84
2023/03/07 11:28:34;;;;;;;5.43;2.87;;;;;;;3.72;88.14;99684.56;5030358;28;20056;-79
2023/03/07 11:31:38;;;;;;;4.70;3.00;;;;;;;3.71;88.30;99688.00;5027875;28;20061;-79
2023/03/07 11:34:22;;;;;;;4.83;2.90;;;;;;;3.70;87.92;99680.31;5026385;28;20053;-80
2023/03/07 11:36:53;;;;;;;5.33;3.30;;;;;;;3.66;87.55;99676.13;5032131;28;20042;-80
2023/03/07 11:39:41;;;;;;;4.43;3.08;;;;;;;3.63;87.70;99684.69;5032108;28;20037;-80
2023/03/07 11:42:21;;;;;;;4.80;3.10;;;;;;;3.61;88.02;99689.88;5029016;28;20034;-80
2023/03/07 11:44:59;;;;;;;4.73;3.20;;;;;;;3.63;88.32;99689.84;5029356;28;20028;-79
2023/03/07 11:48:10;;;;;;;4.97;3.00;;;;;;;3.66;87.97;99679.50;5033287;28;20112;-79